createdAt,value
2023-04-22T00:04:54.106Z,99.90
2023-04-22T00:09:57.331Z,99.90
2023-04-22T00:15:01.769Z,99.90
2023-04-22T00:20:06.173Z,99.90
2023-04-22T00:25:09.826Z,99.90
2023-04-22T00:30:16.521Z,99.90
2023-04-22T00:35:19.465Z,99.90
2023-04-22T00:40:22.708Z,99.90
2023-04-22T00:45:27.957Z,99.90
2023-04-22T00:50:31.011Z,99.90
2023-04-22T00:55:35.744Z,99.90
2023-04-22T01:00:40.095Z,99.90
2023-04-22T01:05:43.316Z,99.90
2023-04-22T01:10:46.779Z,99.90
2023-04-22T01:15:51.762Z,99.90
2023-04-22T01:20:56.188Z,99.90
2023-04-22T01:26:00.540Z,99.90
2023-04-22T01:31:03.668Z,99.90
2023-04-22T01:36:06.945Z,99.90
2023-04-22T01:41:11.440Z,99.90
2023-04-22T01:46:14.406Z,99.90
2023-04-22T01:51:17.561Z,99.90
2023-04-22T01:56:21.787Z,99.90
2023-04-22T02:01:25.671Z,99.90
2023-04-22T02:06:28.659Z,99.90
2023-04-22T02:11:33.649Z,99.90
2023-04-22T02:16:36.627Z,99.90
2023-04-22T02:21:41.066Z,99.90
2023-04-22T02:26:46.042Z,99.90
2023-04-22T02:31:49.133Z,99.90
2023-04-22T02:36:52.527Z,99.90
2023-04-22T02:41:57.193Z,99.90
2023-04-22T02:47:00.350Z,99.90
2023-04-22T02:52:03.428Z,99.90
2023-04-22T02:57:07.957Z,99.90
2023-04-22T03:02:11.380Z,99.90
2023-04-22T03:07:37.647Z,99.90
2023-04-22T03:12:42.635Z,99.90
2023-04-22T03:17:45.681Z,99.90
2023-04-22T03:22:50.377Z,99.90
2023-04-22T03:27:54.851Z,99.90
2023-04-22T03:32:57.821Z,99.90
2023-04-22T03:38:07.865Z,99.90
2023-04-22T03:43:14.666Z,99.90
2023-04-22T03:48:18.710Z,99.90
2023-04-22T03:53:25.349Z,99.90
2023-04-22T03:58:30.096Z,99.90
2023-04-22T04:03:35.556Z,99.90
2023-04-22T04:08:39.085Z,99.90
2023-04-22T04:13:43.725Z,99.90
2023-04-22T04:19:07.336Z,99.90
2023-04-22T04:24:12.538Z,99.90
2023-04-22T04:29:23.816Z,99.90
2023-04-22T04:34:39.487Z,99.90
2023-04-22T04:39:44.486Z,99.90
2023-04-22T04:44:51.028Z,99.90
2023-04-22T04:49:58.541Z,99.90
2023-04-22T04:55:01.719Z,99.90
2023-04-22T05:00:10.440Z,99.90
2023-04-22T05:05:13.411Z,99.90
2023-04-22T05:10:18.317Z,99.90
2023-04-22T05:15:23.128Z,99.90
2023-04-22T05:20:26.301Z,99.90
2023-04-22T05:25:29.498Z,99.90
2023-04-22T05:30:40.198Z,99.90
2023-04-22T05:35:43.272Z,99.90
2023-04-22T05:40:47.250Z,99.90
2023-04-22T05:45:53.253Z,99.90
2023-04-22T05:50:57.091Z,99.90
2023-04-22T05:56:02.091Z,99.90
2023-04-22T06:01:06.451Z,99.90
2023-04-22T06:06:54.084Z,99.90
2023-04-22T06:11:58.194Z,99.90
2023-04-22T06:17:03.094Z,99.90
2023-04-22T06:22:06.287Z,99.90
2023-04-22T06:27:09.264Z,99.90
2023-04-22T06:32:13.642Z,99.90
2023-04-22T06:37:19.400Z,99.90
2023-04-22T06:42:22.507Z,99.90
2023-04-22T06:47:47.308Z,99.90
2023-04-22T06:52:53.142Z,99.90
2023-04-22T06:57:56.212Z,99.90
2023-04-22T07:03:00.547Z,99.90
2023-04-22T07:08:04.531Z,99.90
2023-04-22T07:13:07.432Z,99.90
2023-04-22T07:18:11.651Z,99.90
2023-04-22T07:23:14.487Z,99.90
2023-04-22T07:28:17.341Z,99.90
2023-04-22T07:33:21.532Z,99.90
2023-04-22T07:38:24.399Z,99.90
2023-04-22T07:43:27.262Z,99.90
2023-04-22T07:48:31.521Z,99.90
2023-04-22T07:53:34.402Z,99.90
2023-04-22T07:58:37.306Z,99.90
2023-04-22T08:03:41.763Z,99.90
2023-04-22T08:08:44.805Z,99.90
2023-04-22T08:13:47.706Z,99.90
2023-04-22T08:18:52.995Z,99.90
2023-04-22T08:23:56.008Z,99.90
2023-04-22T08:28:58.884Z,99.90
2023-04-22T08:34:03.170Z,99.90
2023-04-22T08:39:06.199Z,99.90
2023-04-22T08:44:09.529Z,99.90
2023-04-22T08:49:14.791Z,99.90
2023-04-22T08:54:17.653Z,99.90
2023-04-22T08:59:23.444Z,99.90
2023-04-22T09:04:27.885Z,99.90
2023-04-22T09:09:31.911Z,99.90
2023-04-22T09:14:35.288Z,99.90
2023-04-22T09:19:39.848Z,99.90
2023-04-22T09:24:45.023Z,99.90
2023-04-22T09:29:49.958Z,99.90
2023-04-22T09:34:55.633Z,99.90
2023-04-22T09:39:58.507Z,99.90
2023-04-22T09:45:02.295Z,99.90
2023-04-22T09:50:07.581Z,99.90
2023-04-22T09:55:10.797Z,99.90
2023-04-22T10:00:15.393Z,99.90
2023-04-22T10:05:19.764Z,99.90
2023-04-22T10:10:23.423Z,99.90
2023-04-22T10:15:27.458Z,99.90
2023-04-22T10:20:36.312Z,99.90
2023-04-22T10:25:41.338Z,99.90
2023-04-22T10:30:45.602Z,99.90
2023-04-22T10:36:11.602Z,99.90
2023-04-22T10:41:16.135Z,99.90
2023-04-22T10:46:53.021Z,98.30
2023-04-22T10:51:59.223Z,97.00
2023-04-22T10:57:03.276Z,95.40
2023-04-22T11:02:07.740Z,94.20
2023-04-22T11:07:32.015Z,93.40
2023-04-22T11:12:45.015Z,91.90
2023-04-22T11:17:53.877Z,90.80
2023-04-22T11:22:59.173Z,90.00
2023-04-22T11:28:02.148Z,88.30
2023-04-22T11:33:05.132Z,87.50
2023-04-22T11:38:09.815Z,86.50
2023-04-22T11:43:12.961Z,84.90
2023-04-22T11:48:16.648Z,83.90
2023-04-22T11:53:23.975Z,81.30
2023-04-22T11:58:28.642Z,80.20
2023-04-22T12:03:32.247Z,79.70
2023-04-22T12:08:39.785Z,78.10
2023-04-22T12:13:45.522Z,76.90
2023-04-22T12:18:53.092Z,76.40
2023-04-22T12:23:59.953Z,75.70
2023-04-22T12:29:02.811Z,75.80
2023-04-22T12:34:06.158Z,74.90
2023-04-22T12:39:10.707Z,74.80
2023-04-22T12:44:13.610Z,73.40
2023-04-22T12:49:16.708Z,72.60
2023-04-22T12:54:21.888Z,71.10
2023-04-22T12:59:24.774Z,70.20
2023-04-22T13:04:27.728Z,69.70
2023-04-22T13:09:32.025Z,70.00
2023-04-22T13:14:34.940Z,68.60
2023-04-22T13:19:37.981Z,68.20
2023-04-22T13:24:42.316Z,67.90
2023-04-22T13:29:45.501Z,68.00
2023-04-22T13:34:48.495Z,67.30
2023-04-22T13:39:52.812Z,66.70
2023-04-22T13:44:55.665Z,66.60
2023-04-22T13:49:58.761Z,66.20
2023-04-22T13:55:04.225Z,65.30
2023-04-22T14:00:09.344Z,64.60
2023-04-22T14:05:15.057Z,64.50
2023-04-22T14:10:20.467Z,64.20
2023-04-22T14:15:23.375Z,63.80
2023-04-22T14:20:26.318Z,63.90
2023-04-22T14:25:30.576Z,63.90
2023-04-22T14:30:33.728Z,63.80
2023-04-22T14:35:37.211Z,63.50
2023-04-22T14:40:41.530Z,63.10
2023-04-22T14:45:44.619Z,64.20
2023-04-22T14:50:47.486Z,63.30
2023-04-22T14:55:52.541Z,63.50
2023-04-22T15:00:55.637Z,63.80
2023-04-22T15:05:58.882Z,63.70
2023-04-22T15:11:03.061Z,64.00
2023-04-22T15:16:06.335Z,63.90
2023-04-22T15:21:10.516Z,64.10
2023-04-22T15:26:15.097Z,64.10
2023-04-22T15:31:18.166Z,64.40
2023-04-22T15:36:21.616Z,64.60
2023-04-22T15:41:26.324Z,64.90
2023-04-22T15:46:30.725Z,64.90
2023-04-22T15:51:33.670Z,64.40
2023-04-22T15:56:38.016Z,63.70
2023-04-22T16:01:41.357Z,63.40
2023-04-22T16:06:44.709Z,63.50
2023-04-22T16:11:48.943Z,63.90
2023-04-22T16:16:52.353Z,64.80
2023-04-22T16:21:55.669Z,65.40
2023-04-22T16:26:59.881Z,66.80
2023-04-22T16:32:04.974Z,67.60
2023-04-22T16:37:09.433Z,68.50
2023-04-22T16:42:13.955Z,68.60
2023-04-22T16:47:16.839Z,68.00
2023-04-22T16:52:19.947Z,67.50
2023-04-22T16:57:24.212Z,68.10
2023-04-22T17:02:27.258Z,72.50
2023-04-22T17:07:30.301Z,77.70
2023-04-22T17:12:34.749Z,83.20
2023-04-22T17:17:37.755Z,88.80
2023-04-22T17:22:40.647Z,91.80
2023-04-22T17:27:44.857Z,94.40
2023-04-22T17:32:47.826Z,96.70
2023-04-22T17:37:53.524Z,99.20
2023-04-22T17:42:57.752Z,99.90
2023-04-22T17:48:00.654Z,99.90
2023-04-22T17:53:03.587Z,99.90
2023-04-22T17:58:07.890Z,99.90
2023-04-22T18:03:12.051Z,99.90
2023-04-22T18:08:15.256Z,99.90
2023-04-22T18:13:19.516Z,99.90
2023-04-22T18:18:22.493Z,99.90
2023-04-22T18:23:25.409Z,99.90
2023-04-22T18:28:29.621Z,99.90
2023-04-22T18:33:32.580Z,99.90
2023-04-22T18:38:35.544Z,99.90
2023-04-22T18:43:39.873Z,99.90
2023-04-22T18:48:43.560Z,99.90
2023-04-22T18:53:46.688Z,99.90
2023-04-22T18:58:51.341Z,99.90
2023-04-22T19:03:54.399Z,99.90
2023-04-22T19:08:57.353Z,99.90
2023-04-22T19:14:02.929Z,99.90
2023-04-22T19:19:06.012Z,99.90
2023-04-22T19:24:09.674Z,99.90
2023-04-22T19:29:16.074Z,99.90
2023-04-22T19:34:19.013Z,99.90
2023-04-22T19:39:22.059Z,99.90
2023-04-22T19:44:26.419Z,99.90
2023-04-22T19:49:32.879Z,99.90
2023-04-22T19:54:36.715Z,99.90
2023-04-22T19:59:41.885Z,99.90
2023-04-22T20:04:45.565Z,99.90
2023-04-22T20:09:50.329Z,99.90
2023-04-22T20:14:54.580Z,99.90
2023-04-22T20:20:01.644Z,99.90
2023-04-22T20:25:07.457Z,99.90
2023-04-22T20:30:14.424Z,99.90
2023-04-22T20:35:20.042Z,99.90
2023-04-22T20:40:24.704Z,99.90
2023-04-22T20:45:29.119Z,99.90
2023-04-22T20:50:33.514Z,99.90
2023-04-22T20:55:37.305Z,99.90
2023-04-22T21:00:41.787Z,99.90
2023-04-22T21:05:46.611Z,99.90
2023-04-22T21:10:50.815Z,99.90
2023-04-22T21:15:59.037Z,99.90
2023-04-22T21:21:04.273Z,99.90
2023-04-22T21:26:07.699Z,99.90
2023-04-22T21:31:12.993Z,99.90
2023-04-22T21:36:17.183Z,99.90
2023-04-22T21:41:20.120Z,99.90
2023-04-22T21:46:24.538Z,99.90
2023-04-22T21:51:28.006Z,99.90
2023-04-22T21:56:33.491Z,99.90
2023-04-22T22:01:37.743Z,99.90
2023-04-22T22:06:40.688Z,99.90
2023-04-22T22:11:43.538Z,99.90
2023-04-22T22:16:49.880Z,99.90
2023-04-22T22:21:52.926Z,99.90
2023-04-22T22:26:57.856Z,99.90
2023-04-22T22:32:02.172Z,99.90
2023-04-22T22:37:05.242Z,99.90
2023-04-22T22:42:08.156Z,99.90
2023-04-22T22:47:12.375Z,99.90
2023-04-22T22:52:15.297Z,99.90
2023-04-22T22:57:18.196Z,99.90
2023-04-22T23:02:22.461Z,99.90
2023-04-22T23:07:25.817Z,99.90
2023-04-22T23:12:29.691Z,99.90
2023-04-22T23:17:33.981Z,99.90
2023-04-22T23:22:38.750Z,99.90
2023-04-22T23:27:42.287Z,99.90
2023-04-22T23:32:47.897Z,99.90
2023-04-22T23:37:52.849Z,99.90
2023-04-22T23:42:55.716Z,99.90
2023-04-22T23:48:00.076Z,99.90
2023-04-22T23:53:03.000Z,99.90
2023-04-22T23:58:06.531Z,99.90
